Aérodrome :
LOGIN :

S'inscrire | Disclaimer

   EN    FR    IT 

 










Légende :    VFR   VFR Marginal   IFR   IFR Intensif   IFR Très Intensif
Visi : 
Plafond : 
>= 8 km
>= 3000ft
5 à 8 km
1000 à 3000 ft
1500m à 5 km
500 à 1000 ft
800 à 1500m
200 à 500 ft
< 800m
< 200 ft
Symboles :   Orages  Brouillard  Fortes neiges  Fortes précipitations  Vent > 20 kt
SIGMETs :   Divers  Orages  Givrage  Turbulence  Onde Orograph.  Cendres Volcan.






- Altitude de l'aérodrome : 505 ft
- Code IATA : SXB


LFST - Strasbourg

DERNIER METAR :
  • 190430Z AUTO 18007KT 9999 OVC019 05/03 Q1016 TEMPO BKN004

METARs EXPIRÉS :
  • 190400Z AUTO 18006KT 9999 OVC019 04/03 Q1016 TEMPO BKN004
  • 190330Z AUTO VRB03KT 9999 OVC021 04/03 Q1016 TEMPO BKN004
  • 190300Z AUTO 22005KT 9999 OVC022 04/03 Q1015 TEMPO BKN004
  • 190230Z AUTO 20006KT 9999 OVC024 04/03 Q1016 TEMPO BKN004
  • 190200Z AUTO 18006KT 150V220 9999 BKN026 OVC031 04/02 Q1015 TEMPO BKN004

TAF TAF LFST
Valide du 19 à 00h jusqu'au 20 à 00h UTC


182300Z 1900/1924 19009KT 9999 FEW005 BKN030
PROB40
TEMPO 1900/1912 BKN004
BECMG 1912/1915 36005KT
TEMPO 1919/1924 BKN004
TEMPO 1920/1924 4000 BR



MET'MAP, la Météo Aéronautique d'un coup d'oeil ! - Copyright ORBIFLY Décembre 2007 - Disclaimer

ORBIFLY MET'MAP TEAM :

Programmation & Développement : Alexandra Zaïnal
Conception & Développement : Baudouin d'Aumeries
Co-Programmation & Développement : Marc-Olivier Méhu
Soutien technique & logistique : Manuel Goepfert

Contact : metmap@orbifly.com




SOURCES & CREDITS :

   NOAA